Sheridan, NY (14135)

8:48 AM EDT on August 18, 2017 (GMT -0400)
East Main Street | | Change Station
Active Advisory: Beach Hazard Statement

Elev 738 ft 42.44 °N, 79.33 °W | Updated 1 minute ago

Clear
Clear
72.3 °F
Feels Like 71 °F
N
1.2
Wind Variable Wind from SW
Gusts 3.7 mph

Today
High -- | Low -- °F
--% Chance of Precip.
Yesterday
High -- | Low -- °F
Precip. -- in
Pressure 29.76 in
Visibility 10.0 miles
Clouds Clear
Heat Index 71 °F
Dew Point 68 °F
Humidity 86%
Rainfall Not available.
Snow Depth Not available.
6:27 AM 8:13 PM
Waning Crescent, 14% visible
METAR KDKK 181153Z AUTO 20007KT 10SM CLR 23/21 A2978 RMK AO2 SLP078 70059 T02330206 10239 20217 51006 $
Pressure 29.76 in
Visibility 10.0 miles
Clouds Clear
Heat Index 71 °F
Dew Point 68 °F
Humidity 86%
Rainfall Not available.
Snow Depth Not available.
6:27 AM 8:13 PM
Waning Crescent, 14% visible
METAR KDKK 181153Z AUTO 20007KT 10SM CLR 23/21 A2978 RMK AO2 SLP078 70059 T02330206 10239 20217 51006 $

Get Your Daily Forecast Email!

Thanks for signing up!

Be on the lookout for a verification email in your inbox.

You'll start receiving severe weather alerts in your inbox..

×

10-Day Weather Forecast

Almanac

Astronomy

Aug. 18, 2017 Rise Set
Actual Time
Civil Twilight
Nautical Twilight
Astronomical Twilight
Moon
Length of Visible Light
Length of Day
Tomorrow will be .
, % of the Moon is Illuminated

Today's Extremes

State Highs State Lows

Community

WunderPhotos

Category 6

Welcome to Category 6. This is the collective home for Weather Underground's featured writeups by Dr. Jeff Masters (right), Bob Henson (left), Chris Burt, and other regular contributors.

Nearby

Air Quality

  Air Quality AQ Index Pollutant
Not available.

Snow Depth

Station Depth Elevation

Earthquake Activity

City Distance Mag. Time & Date
Minimum magnitude displayed is 2.5.

Coastal Water Temperatures

Place Temperature

Stations

Nearby Weather Stations

Station Location Temp. Windchill Dew Point Humidity Wind Precip. Elev Updated Type
                   

Watches & Warnings

Beach Hazard Statement
Issued: 4:01 AM EDT Aug. 18, 2017 – National Weather Service

... Beach hazards statement now in effect from noon EDT today
through this evening...

* locations... beaches of Erie and Chautauqua counties.

* Timing... from late this morning through late this evening.

* Impacts... strong currents and dangerous swimming conditions.

Precautionary/preparedness actions...

A beach hazards statement is issued when there is a high swim
risk. This means life threatening waves and currents are
expected. Stay out of the water and stay away from dangerous
areas like piers and breakwalls.



Hitchcock